sensor_id;sensor_type;location;lat;lon;timestamp;P1;durP1;ratioP1;P2;durP2;ratioP2
19664;SDS011;9980;51.020;7.772;2023-11-19T00:00:18;1.53;;;1.47;;
19664;SDS011;9980;51.020;7.772;2023-11-19T00:02:45;1.60;;;1.50;;
19664;SDS011;9980;51.020;7.772;2023-11-19T00:05:13;1.70;;;1.60;;
19664;SDS011;9980;51.020;7.772;2023-11-19T00:07:41;1.40;;;1.40;;
19664;SDS011;9980;51.020;7.772;2023-11-19T00:10:09;1.50;;;1.47;;
19664;SDS011;9980;51.020;7.772;2023-11-19T00:12:45;1.40;;;1.40;;
19664;SDS011;9980;51.020;7.772;2023-11-19T00:15:14;1.40;;;1.40;;
19664;SDS011;9980;51.020;7.772;2023-11-19T00:17:44;1.53;;;1.43;;
19664;SDS011;9980;51.020;7.772;2023-11-19T00:20:14;1.60;;;1.50;;
19664;SDS011;9980;51.020;7.772;2023-11-19T00:22:46;1.30;;;1.30;;
19664;SDS011;9980;51.020;7.772;2023-11-19T00:25:16;2.23;;;1.40;;
19664;SDS011;9980;51.020;7.772;2023-11-19T00:27:44;2.20;;;1.60;;
19664;SDS011;9980;51.020;7.772;2023-11-19T00:30:12;1.43;;;1.30;;
19664;SDS011;9980;51.020;7.772;2023-11-19T00:32:40;1.50;;;1.40;;
19664;SDS011;9980;51.020;7.772;2023-11-19T00:35:08;1.60;;;1.50;;
19664;SDS011;9980;51.020;7.772;2023-11-19T00:37:42;1.47;;;1.37;;
19664;SDS011;9980;51.020;7.772;2023-11-19T00:40:09;2.53;;;1.40;;
19664;SDS011;9980;51.020;7.772;2023-11-19T00:42:37;1.30;;;1.30;;
19664;SDS011;9980;51.020;7.772;2023-11-19T00:45:05;2.13;;;1.57;;
19664;SDS011;9980;51.020;7.772;2023-11-19T00:47:37;1.20;;;1.20;;
19664;SDS011;9980;51.020;7.772;2023-11-19T00:50:05;1.60;;;1.50;;
19664;SDS011;9980;51.020;7.772;2023-11-19T00:52:36;1.60;;;1.50;;
19664;SDS011;9980;51.020;7.772;2023-11-19T00:55:04;1.70;;;1.60;;
19664;SDS011;9980;51.020;7.772;2023-11-19T00:57:31;4.50;;;1.83;;
19664;SDS011;9980;51.020;7.772;2023-11-19T00:59:59;1.60;;;1.50;;
19664;SDS011;9980;51.020;7.772;2023-11-19T01:02:26;1.43;;;1.33;;
19664;SDS011;9980;51.020;7.772;2023-11-19T01:04:54;1.73;;;1.63;;
19664;SDS011;9980;51.020;7.772;2023-11-19T01:07:22;1.83;;;1.73;;
19664;SDS011;9980;51.020;7.772;2023-11-19T01:09:50;1.80;;;1.70;;
19664;SDS011;9980;51.020;7.772;2023-11-19T01:12:17;1.70;;;1.60;;
19664;SDS011;9980;51.020;7.772;2023-11-19T01:14:44;1.77;;;1.67;;
19664;SDS011;9980;51.020;7.772;2023-11-19T01:17:11;1.60;;;1.50;;
19664;SDS011;9980;51.020;7.772;2023-11-19T01:19:38;1.70;;;1.60;;
19664;SDS011;9980;51.020;7.772;2023-11-19T01:22:05;1.80;;;1.70;;
19664;SDS011;9980;51.020;7.772;2023-11-19T01:24:32;1.30;;;1.30;;
19664;SDS011;9980;51.020;7.772;2023-11-19T01:27:00;1.60;;;1.50;;
19664;SDS011;9980;51.020;7.772;2023-11-19T01:29:27;1.57;;;1.50;;
19664;SDS011;9980;51.020;7.772;2023-11-19T01:31:54;3.63;;;1.60;;
19664;SDS011;9980;51.020;7.772;2023-11-19T01:34:21;1.83;;;1.73;;
19664;SDS011;9980;51.020;7.772;2023-11-19T01:36:48;1.77;;;1.67;;
19664;SDS011;9980;51.020;7.772;2023-11-19T01:39:15;3.03;;;1.80;;
19664;SDS011;9980;51.020;7.772;2023-11-19T01:41:43;2.00;;;1.80;;
19664;SDS011;9980;51.020;7.772;2023-11-19T01:44:13;1.80;;;1.70;;
19664;SDS011;9980;51.020;7.772;2023-11-19T01:46:40;1.77;;;1.67;;
19664;SDS011;9980;51.020;7.772;2023-11-19T01:49:10;1.83;;;1.73;;
19664;SDS011;9980;51.020;7.772;2023-11-19T01:51:39;1.97;;;1.87;;
19664;SDS011;9980;51.020;7.772;2023-11-19T01:54:07;1.97;;;1.83;;
19664;SDS011;9980;51.020;7.772;2023-11-19T01:56:35;1.90;;;1.80;;
19664;SDS011;9980;51.020;7.772;2023-11-19T01:59:08;1.87;;;1.57;;
19664;SDS011;9980;51.020;7.772;2023-11-19T02:01:40;1.30;;;1.30;;
19664;SDS011;9980;51.020;7.772;2023-11-19T02:04:08;1.70;;;1.60;;
19664;SDS011;9980;51.020;7.772;2023-11-19T02:06:39;1.40;;;1.30;;
19664;SDS011;9980;51.020;7.772;2023-11-19T02:09:08;2.20;;;1.30;;
19664;SDS011;9980;51.020;7.772;2023-11-19T02:11:36;1.20;;;1.20;;
19664;SDS011;9980;51.020;7.772;2023-11-19T02:14:06;1.20;;;1.20;;
19664;SDS011;9980;51.020;7.772;2023-11-19T02:16:33;1.17;;;1.10;;
19664;SDS011;9980;51.020;7.772;2023-11-19T02:19:00;1.10;;;1.10;;
19664;SDS011;9980;51.020;7.772;2023-11-19T02:21:27;1.10;;;1.10;;
19664;SDS011;9980;51.020;7.772;2023-11-19T02:23:54;1.17;;;1.13;;
19664;SDS011;9980;51.020;7.772;2023-11-19T02:29:37;1.10;;;1.10;;
19664;SDS011;9980;51.020;7.772;2023-11-19T02:32:04;1.10;;;1.10;;
19664;SDS011;9980;51.020;7.772;2023-11-19T02:34:35;1.40;;;1.30;;
19664;SDS011;9980;51.020;7.772;2023-11-19T02:37:02;1.33;;;1.23;;
19664;SDS011;9980;51.020;7.772;2023-11-19T02:39:31;1.50;;;1.40;;
19664;SDS011;9980;51.020;7.772;2023-11-19T02:41:58;1.50;;;1.40;;
19664;SDS011;9980;51.020;7.772;2023-11-19T02:44:25;1.57;;;1.47;;
19664;SDS011;9980;51.020;7.772;2023-11-19T02:46:54;2.30;;;1.43;;
19664;SDS011;9980;51.020;7.772;2023-11-19T02:49:22;2.93;;;1.90;;
19664;SDS011;9980;51.020;7.772;2023-11-19T02:51:50;2.67;;;1.77;;
19664;SDS011;9980;51.020;7.772;2023-11-19T02:54:17;1.70;;;1.60;;
19664;SDS011;9980;51.020;7.772;2023-11-19T02:56:44;4.00;;;1.70;;
19664;SDS011;9980;51.020;7.772;2023-11-19T02:59:14;2.20;;;1.80;;
19664;SDS011;9980;51.020;7.772;2023-11-19T03:01:53;3.03;;;1.80;;
19664;SDS011;9980;51.020;7.772;2023-11-19T03:04:21;3.93;;;2.30;;
19664;SDS011;9980;51.020;7.772;2023-11-19T03:06:49;2.10;;;1.93;;
19664;SDS011;9980;51.020;7.772;2023-11-19T03:09:16;1.90;;;1.80;;
19664;SDS011;9980;51.020;7.772;2023-11-19T03:11:43;2.23;;;1.93;;
19664;SDS011;9980;51.020;7.772;2023-11-19T03:14:10;2.17;;;1.97;;
19664;SDS011;9980;51.020;7.772;2023-11-19T03:16:36;2.10;;;1.90;;
19664;SDS011;9980;51.020;7.772;2023-11-19T03:19:04;2.00;;;1.90;;
19664;SDS011;9980;51.020;7.772;2023-11-19T03:21:31;3.63;;;1.97;;
19664;SDS011;9980;51.020;7.772;2023-11-19T03:23:58;3.83;;;2.03;;
19664;SDS011;9980;51.020;7.772;2023-11-19T03:26:28;2.43;;;2.23;;
19664;SDS011;9980;51.020;7.772;2023-11-19T03:28:55;2.83;;;1.83;;
19664;SDS011;9980;51.020;7.772;2023-11-19T03:31:23;4.50;;;1.80;;
19664;SDS011;9980;51.020;7.772;2023-11-19T03:33:51;2.03;;;1.70;;
19664;SDS011;9980;51.020;7.772;2023-11-19T03:36:21;3.00;;;1.73;;
19664;SDS011;9980;51.020;7.772;2023-11-19T03:38:51;2.87;;;2.13;;
19664;SDS011;9980;51.020;7.772;2023-11-19T03:41:18;4.53;;;1.83;;
19664;SDS011;9980;51.020;7.772;2023-11-19T03:43:45;3.07;;;2.10;;
19664;SDS011;9980;51.020;7.772;2023-11-19T03:46:19;4.33;;;2.40;;
19664;SDS011;9980;51.020;7.772;2023-11-19T03:48:48;2.87;;;2.10;;
19664;SDS011;9980;51.020;7.772;2023-11-19T03:51:18;4.33;;;2.20;;
19664;SDS011;9980;51.020;7.772;2023-11-19T03:53:45;2.23;;;1.93;;
19664;SDS011;9980;51.020;7.772;2023-11-19T03:56:12;2.70;;;2.17;;
19664;SDS011;9980;51.020;7.772;2023-11-19T03:58:39;3.60;;;2.20;;
19664;SDS011;9980;51.020;7.772;2023-11-19T04:01:10;4.70;;;2.00;;
19664;SDS011;9980;51.020;7.772;2023-11-19T04:03:40;4.30;;;2.60;;
19664;SDS011;9980;51.020;7.772;2023-11-19T04:06:16;3.47;;;2.10;;
19664;SDS011;9980;51.020;7.772;2023-11-19T04:08:43;3.20;;;2.03;;
19664;SDS011;9980;51.020;7.772;2023-11-19T04:11:11;2.27;;;2.00;;
19664;SDS011;9980;51.020;7.772;2023-11-19T04:13:37;3.17;;;2.00;;
19664;SDS011;9980;51.020;7.772;2023-11-19T04:16:04;5.37;;;2.20;;
19664;SDS011;9980;51.020;7.772;2023-11-19T04:18:32;3.20;;;1.80;;
19664;SDS011;9980;51.020;7.772;2023-11-19T04:20:59;3.43;;;1.90;;
19664;SDS011;9980;51.020;7.772;2023-11-19T04:23:26;2.70;;;1.80;;
19664;SDS011;9980;51.020;7.772;2023-11-19T04:25:53;2.87;;;1.70;;
19664;SDS011;9980;51.020;7.772;2023-11-19T04:28:20;8.83;;;2.03;;
19664;SDS011;9980;51.020;7.772;2023-11-19T04:30:47;2.57;;;2.10;;
19664;SDS011;9980;51.020;7.772;2023-11-19T04:33:14;2.80;;;1.83;;
19664;SDS011;9980;51.020;7.772;2023-11-19T04:35:41;3.53;;;1.60;;
19664;SDS011;9980;51.020;7.772;2023-11-19T04:38:08;2.53;;;1.90;;
19664;SDS011;9980;51.020;7.772;2023-11-19T04:40:35;2.23;;;2.03;;
19664;SDS011;9980;51.020;7.772;2023-11-19T04:43:02;3.77;;;1.60;;
19664;SDS011;9980;51.020;7.772;2023-11-19T04:45:29;4.90;;;2.00;;
19664;SDS011;9980;51.020;7.772;2023-11-19T04:47:56;2.53;;;1.70;;
19664;SDS011;9980;51.020;7.772;2023-11-19T04:50:22;3.47;;;2.30;;
19664;SDS011;9980;51.020;7.772;2023-11-19T04:52:49;4.60;;;2.40;;
19664;SDS011;9980;51.020;7.772;2023-11-19T04:55:16;5.87;;;2.20;;
19664;SDS011;9980;51.020;7.772;2023-11-19T04:57:44;5.37;;;2.53;;
19664;SDS011;9980;51.020;7.772;2023-11-19T05:00:11;6.03;;;2.40;;
19664;SDS011;9980;51.020;7.772;2023-11-19T05:02:43;5.23;;;2.17;;
19664;SDS011;9980;51.020;7.772;2023-11-19T05:05:10;5.87;;;2.27;;
19664;SDS011;9980;51.020;7.772;2023-11-19T05:07:38;6.47;;;2.33;;
19664;SDS011;9980;51.020;7.772;2023-11-19T05:10:05;6.07;;;2.70;;
19664;SDS011;9980;51.020;7.772;2023-11-19T05:12:33;5.50;;;2.43;;
19664;SDS011;9980;51.020;7.772;2023-11-19T05:15:00;6.27;;;2.50;;
19664;SDS011;9980;51.020;7.772;2023-11-19T05:17:27;5.93;;;2.80;;
19664;SDS011;9980;51.020;7.772;2023-11-19T05:19:54;5.63;;;2.53;;
19664;SDS011;9980;51.020;7.772;2023-11-19T05:22:21;7.67;;;2.50;;
19664;SDS011;9980;51.020;7.772;2023-11-19T05:24:48;5.63;;;2.50;;
19664;SDS011;9980;51.020;7.772;2023-11-19T05:27:15;5.77;;;2.30;;
19664;SDS011;9980;51.020;7.772;2023-11-19T05:29:42;5.90;;;2.10;;
19664;SDS011;9980;51.020;7.772;2023-11-19T05:32:10;7.67;;;2.70;;
19664;SDS011;9980;51.020;7.772;2023-11-19T05:34:38;7.07;;;2.80;;
19664;SDS011;9980;51.020;7.772;2023-11-19T05:37:17;8.17;;;2.63;;
19664;SDS011;9980;51.020;7.772;2023-11-19T05:39:45;7.80;;;2.77;;
19664;SDS011;9980;51.020;7.772;2023-11-19T05:42:12;6.60;;;2.77;;
19664;SDS011;9980;51.020;7.772;2023-11-19T05:44:39;10.07;;;2.83;;
19664;SDS011;9980;51.020;7.772;2023-11-19T05:47:07;9.80;;;2.70;;
19664;SDS011;9980;51.020;7.772;2023-11-19T05:49:34;9.60;;;2.90;;
19664;SDS011;9980;51.020;7.772;2023-11-19T05:52:01;6.97;;;3.13;;
19664;SDS011;9980;51.020;7.772;2023-11-19T05:54:29;10.67;;;3.00;;
19664;SDS011;9980;51.020;7.772;2023-11-19T05:56:57;9.07;;;3.03;;
19664;SDS011;9980;51.020;7.772;2023-11-19T05:59:24;8.13;;;2.83;;
19664;SDS011;9980;51.020;7.772;2023-11-19T06:01:52;11.80;;;2.90;;
19664;SDS011;9980;51.020;7.772;2023-11-19T06:04:19;6.60;;;3.17;;
19664;SDS011;9980;51.020;7.772;2023-11-19T06:06:46;10.60;;;2.97;;
19664;SDS011;9980;51.020;7.772;2023-11-19T06:09:13;11.63;;;3.27;;
19664;SDS011;9980;51.020;7.772;2023-11-19T06:11:40;11.07;;;3.23;;
19664;SDS011;9980;51.020;7.772;2023-11-19T06:14:07;9.03;;;3.10;;
19664;SDS011;9980;51.020;7.772;2023-11-19T06:16:34;11.10;;;3.40;;
19664;SDS011;9980;51.020;7.772;2023-11-19T06:19:03;14.50;;;3.20;;
19664;SDS011;9980;51.020;7.772;2023-11-19T06:21:30;11.00;;;3.83;;
19664;SDS011;9980;51.020;7.772;2023-11-19T06:23:58;14.70;;;3.77;;
19664;SDS011;9980;51.020;7.772;2023-11-19T06:26:25;10.07;;;3.13;;
19664;SDS011;9980;51.020;7.772;2023-11-19T06:28:53;6.63;;;3.23;;
19664;SDS011;9980;51.020;7.772;2023-11-19T06:31:20;12.83;;;3.40;;
19664;SDS011;9980;51.020;7.772;2023-11-19T06:33:47;11.03;;;3.70;;
19664;SDS011;9980;51.020;7.772;2023-11-19T06:36:14;11.20;;;3.10;;
19664;SDS011;9980;51.020;7.772;2023-11-19T06:38:43;12.97;;;3.77;;
19664;SDS011;9980;51.020;7.772;2023-11-19T06:41:10;14.00;;;3.57;;
19664;SDS011;9980;51.020;7.772;2023-11-19T06:43:37;12.50;;;3.20;;
19664;SDS011;9980;51.020;7.772;2023-11-19T06:46:14;13.30;;;4.17;;
19664;SDS011;9980;51.020;7.772;2023-11-19T06:48:45;11.47;;;3.37;;
19664;SDS011;9980;51.020;7.772;2023-11-19T06:51:12;11.73;;;3.67;;
19664;SDS011;9980;51.020;7.772;2023-11-19T06:53:40;10.13;;;3.70;;
19664;SDS011;9980;51.020;7.772;2023-11-19T06:56:20;11.20;;;3.27;;
19664;SDS011;9980;51.020;7.772;2023-11-19T06:58:52;16.63;;;4.87;;
19664;SDS011;9980;51.020;7.772;2023-11-19T07:01:19;11.53;;;3.40;;
19664;SDS011;9980;51.020;7.772;2023-11-19T07:03:47;10.83;;;3.20;;
19664;SDS011;9980;51.020;7.772;2023-11-19T07:06:15;12.20;;;4.30;;
19664;SDS011;9980;51.020;7.772;2023-11-19T07:08:42;9.83;;;3.53;;
19664;SDS011;9980;51.020;7.772;2023-11-19T07:11:13;11.13;;;4.00;;
19664;SDS011;9980;51.020;7.772;2023-11-19T07:13:41;15.87;;;3.70;;
19664;SDS011;9980;51.020;7.772;2023-11-19T07:16:08;16.93;;;4.10;;
19664;SDS011;9980;51.020;7.772;2023-11-19T07:18:38;10.30;;;3.90;;
19664;SDS011;9980;51.020;7.772;2023-11-19T07:21:05;13.67;;;3.93;;
19664;SDS011;9980;51.020;7.772;2023-11-19T07:23:33;16.67;;;3.70;;
19664;SDS011;9980;51.020;7.772;2023-11-19T07:26:01;15.50;;;4.00;;
19664;SDS011;9980;51.020;7.772;2023-11-19T07:28:31;8.63;;;3.13;;
19664;SDS011;9980;51.020;7.772;2023-11-19T07:31:00;14.23;;;3.37;;
19664;SDS011;9980;51.020;7.772;2023-11-19T07:33:28;14.23;;;3.73;;
19664;SDS011;9980;51.020;7.772;2023-11-19T07:35:55;16.70;;;3.87;;
19664;SDS011;9980;51.020;7.772;2023-11-19T07:38:22;16.60;;;4.10;;
19664;SDS011;9980;51.020;7.772;2023-11-19T07:40:49;16.97;;;4.03;;
19664;SDS011;9980;51.020;7.772;2023-11-19T07:43:19;14.23;;;3.73;;
19664;SDS011;9980;51.020;7.772;2023-11-19T07:45:46;15.97;;;4.27;;
19664;SDS011;9980;51.020;7.772;2023-11-19T07:48:13;13.80;;;3.90;;
19664;SDS011;9980;51.020;7.772;2023-11-19T07:50:41;10.77;;;3.20;;
19664;SDS011;9980;51.020;7.772;2023-11-19T07:53:08;11.43;;;3.63;;
19664;SDS011;9980;51.020;7.772;2023-11-19T07:55:35;15.47;;;3.40;;
19664;SDS011;9980;51.020;7.772;2023-11-19T07:58:07;13.37;;;3.53;;
19664;SDS011;9980;51.020;7.772;2023-11-19T08:00:35;18.97;;;4.07;;
19664;SDS011;9980;51.020;7.772;2023-11-19T08:03:03;12.70;;;4.20;;
19664;SDS011;9980;51.020;7.772;2023-11-19T08:05:31;17.53;;;4.47;;
19664;SDS011;9980;51.020;7.772;2023-11-19T08:07:58;20.00;;;4.63;;
19664;SDS011;9980;51.020;7.772;2023-11-19T08:10:25;14.47;;;3.93;;
19664;SDS011;9980;51.020;7.772;2023-11-19T08:12:53;10.77;;;3.67;;
19664;SDS011;9980;51.020;7.772;2023-11-19T08:15:20;11.40;;;4.20;;
19664;SDS011;9980;51.020;7.772;2023-11-19T08:17:50;17.20;;;5.07;;
19664;SDS011;9980;51.020;7.772;2023-11-19T08:20:17;11.90;;;3.83;;
19664;SDS011;9980;51.020;7.772;2023-11-19T08:22:44;14.33;;;4.00;;
19664;SDS011;9980;51.020;7.772;2023-11-19T08:25:11;15.37;;;3.90;;
19664;SDS011;9980;51.020;7.772;2023-11-19T08:27:41;13.13;;;3.93;;
19664;SDS011;9980;51.020;7.772;2023-11-19T08:30:09;12.50;;;3.77;;
19664;SDS011;9980;51.020;7.772;2023-11-19T08:32:36;9.73;;;3.33;;
19664;SDS011;9980;51.020;7.772;2023-11-19T08:35:03;17.23;;;3.73;;
19664;SDS011;9980;51.020;7.772;2023-11-19T08:37:31;14.03;;;3.77;;
19664;SDS011;9980;51.020;7.772;2023-11-19T08:39:59;13.17;;;3.53;;
19664;SDS011;9980;51.020;7.772;2023-11-19T08:42:27;11.03;;;3.90;;
19664;SDS011;9980;51.020;7.772;2023-11-19T08:44:54;21.07;;;4.30;;
19664;SDS011;9980;51.020;7.772;2023-11-19T08:47:21;12.17;;;4.00;;
19664;SDS011;9980;51.020;7.772;2023-11-19T08:49:52;16.23;;;4.37;;
19664;SDS011;9980;51.020;7.772;2023-11-19T08:52:22;11.90;;;3.60;;
19664;SDS011;9980;51.020;7.772;2023-11-19T08:54:49;17.60;;;4.30;;
19664;SDS011;9980;51.020;7.772;2023-11-19T08:57:16;14.07;;;4.23;;
19664;SDS011;9980;51.020;7.772;2023-11-19T08:59:43;12.53;;;4.13;;
19664;SDS011;9980;51.020;7.772;2023-11-19T09:02:12;11.43;;;4.03;;
19664;SDS011;9980;51.020;7.772;2023-11-19T09:04:39;13.50;;;3.77;;
19664;SDS011;9980;51.020;7.772;2023-11-19T09:07:07;20.03;;;4.80;;
19664;SDS011;9980;51.020;7.772;2023-11-19T09:09:35;18.50;;;3.70;;
19664;SDS011;9980;51.020;7.772;2023-11-19T09:12:03;12.03;;;3.57;;
19664;SDS011;9980;51.020;7.772;2023-11-19T09:14:30;12.97;;;4.17;;
19664;SDS011;9980;51.020;7.772;2023-11-19T09:16:58;12.43;;;4.00;;
19664;SDS011;9980;51.020;7.772;2023-11-19T09:19:25;17.43;;;4.20;;
19664;SDS011;9980;51.020;7.772;2023-11-19T09:21:53;13.57;;;4.00;;
19664;SDS011;9980;51.020;7.772;2023-11-19T09:24:20;8.97;;;3.57;;
19664;SDS011;9980;51.020;7.772;2023-11-19T09:26:47;16.10;;;3.93;;
19664;SDS011;9980;51.020;7.772;2023-11-19T09:29:14;11.20;;;3.50;;
19664;SDS011;9980;51.020;7.772;2023-11-19T09:31:42;16.70;;;3.90;;
19664;SDS011;9980;51.020;7.772;2023-11-19T09:34:09;9.17;;;3.50;;
19664;SDS011;9980;51.020;7.772;2023-11-19T09:36:36;17.60;;;4.30;;
19664;SDS011;9980;51.020;7.772;2023-11-19T09:39:03;10.13;;;4.13;;
19664;SDS011;9980;51.020;7.772;2023-11-19T09:41:31;9.17;;;3.50;;
19664;SDS011;9980;51.020;7.772;2023-11-19T09:43:59;14.73;;;3.67;;
19664;SDS011;9980;51.020;7.772;2023-11-19T09:46:26;15.73;;;3.73;;
19664;SDS011;9980;51.020;7.772;2023-11-19T09:48:54;13.87;;;4.20;;
19664;SDS011;9980;51.020;7.772;2023-11-19T09:51:25;14.90;;;3.73;;
19664;SDS011;9980;51.020;7.772;2023-11-19T09:53:52;14.97;;;3.80;;
19664;SDS011;9980;51.020;7.772;2023-11-19T09:56:19;10.97;;;3.67;;
19664;SDS011;9980;51.020;7.772;2023-11-19T09:58:47;15.33;;;4.43;;
19664;SDS011;9980;51.020;7.772;2023-11-19T10:01:14;18.70;;;4.03;;
19664;SDS011;9980;51.020;7.772;2023-11-19T10:03:54;14.40;;;4.00;;
19664;SDS011;9980;51.020;7.772;2023-11-19T10:06:24;12.53;;;3.47;;
19664;SDS011;9980;51.020;7.772;2023-11-19T10:08:53;18.90;;;4.27;;
19664;SDS011;9980;51.020;7.772;2023-11-19T10:11:21;21.33;;;3.70;;
19664;SDS011;9980;51.020;7.772;2023-11-19T10:13:48;16.37;;;4.20;;
19664;SDS011;9980;51.020;7.772;2023-11-19T10:16:15;15.00;;;4.03;;
19664;SDS011;9980;51.020;7.772;2023-11-19T10:18:49;13.47;;;3.60;;
19664;SDS011;9980;51.020;7.772;2023-11-19T10:21:18;13.87;;;3.80;;
19664;SDS011;9980;51.020;7.772;2023-11-19T10:23:49;13.03;;;3.87;;
19664;SDS011;9980;51.020;7.772;2023-11-19T10:26:18;12.77;;;4.07;;
19664;SDS011;9980;51.020;7.772;2023-11-19T10:28:47;14.60;;;3.73;;
19664;SDS011;9980;51.020;7.772;2023-11-19T10:31:15;15.57;;;3.70;;
19664;SDS011;9980;51.020;7.772;2023-11-19T10:33:44;12.73;;;4.20;;
19664;SDS011;9980;51.020;7.772;2023-11-19T10:36:12;14.30;;;4.33;;
19664;SDS011;9980;51.020;7.772;2023-11-19T10:38:40;13.30;;;3.80;;
19664;SDS011;9980;51.020;7.772;2023-11-19T10:41:26;15.90;;;3.70;;
19664;SDS011;9980;51.020;7.772;2023-11-19T10:43:58;12.37;;;3.73;;
19664;SDS011;9980;51.020;7.772;2023-11-19T10:46:44;16.97;;;4.17;;
19664;SDS011;9980;51.020;7.772;2023-11-19T10:49:11;12.57;;;4.37;;
19664;SDS011;9980;51.020;7.772;2023-11-19T10:51:44;12.20;;;4.10;;
19664;SDS011;9980;51.020;7.772;2023-11-19T10:54:15;16.87;;;3.87;;
19664;SDS011;9980;51.020;7.772;2023-11-19T10:56:47;16.57;;;4.33;;
19664;SDS011;9980;51.020;7.772;2023-11-19T10:59:25;14.57;;;4.37;;
19664;SDS011;9980;51.020;7.772;2023-11-19T11:02:00;14.03;;;3.60;;
19664;SDS011;9980;51.020;7.772;2023-11-19T11:04:34;13.10;;;3.67;;
19664;SDS011;9980;51.020;7.772;2023-11-19T11:07:06;11.37;;;3.33;;
19664;SDS011;9980;51.020;7.772;2023-11-19T11:09:35;13.20;;;4.27;;
19664;SDS011;9980;51.020;7.772;2023-11-19T11:12:02;10.23;;;4.13;;
19664;SDS011;9980;51.020;7.772;2023-11-19T11:14:32;12.80;;;3.60;;
19664;SDS011;9980;51.020;7.772;2023-11-19T11:17:04;13.43;;;4.30;;
19664;SDS011;9980;51.020;7.772;2023-11-19T11:19:34;12.83;;;3.37;;
19664;SDS011;9980;51.020;7.772;2023-11-19T11:22:02;8.50;;;3.40;;
19664;SDS011;9980;51.020;7.772;2023-11-19T11:24:41;14.27;;;4.03;;
19664;SDS011;9980;51.020;7.772;2023-11-19T11:30:49;11.83;;;4.00;;
19664;SDS011;9980;51.020;7.772;2023-11-19T11:36:30;15.63;;;3.83;;
19664;SDS011;9980;51.020;7.772;2023-11-19T11:39:05;13.77;;;3.77;;
19664;SDS011;9980;51.020;7.772;2023-11-19T11:41:34;13.43;;;3.90;;
19664;SDS011;9980;51.020;7.772;2023-11-19T11:44:01;10.33;;;3.63;;
19664;SDS011;9980;51.020;7.772;2023-11-19T11:49:02;15.80;;;4.10;;
19664;SDS011;9980;51.020;7.772;2023-11-19T11:59:50;14.23;;;4.00;;
19664;SDS011;9980;51.020;7.772;2023-11-19T12:02:20;16.37;;;3.80;;
19664;SDS011;9980;51.020;7.772;2023-11-19T12:04:49;12.03;;;3.87;;
19664;SDS011;9980;51.020;7.772;2023-11-19T12:07:20;15.67;;;3.53;;
19664;SDS011;9980;51.020;7.772;2023-11-19T12:09:56;13.40;;;3.47;;
19664;SDS011;9980;51.020;7.772;2023-11-19T12:12:36;11.03;;;3.20;;
19664;SDS011;9980;51.020;7.772;2023-11-19T12:15:09;9.57;;;3.20;;
19664;SDS011;9980;51.020;7.772;2023-11-19T12:17:38;9.77;;;3.33;;
19664;SDS011;9980;51.020;7.772;2023-11-19T12:20:12;10.60;;;3.20;;
19664;SDS011;9980;51.020;7.772;2023-11-19T12:22:39;10.60;;;3.17;;
19664;SDS011;9980;51.020;7.772;2023-11-19T12:25:10;8.57;;;2.87;;
19664;SDS011;9980;51.020;7.772;2023-11-19T12:27:47;11.37;;;3.70;;
19664;SDS011;9980;51.020;7.772;2023-11-19T12:30:17;12.80;;;3.37;;
19664;SDS011;9980;51.020;7.772;2023-11-19T12:32:53;11.73;;;3.90;;
19664;SDS011;9980;51.020;7.772;2023-11-19T12:35:21;11.37;;;3.23;;
19664;SDS011;9980;51.020;7.772;2023-11-19T12:37:50;12.80;;;3.70;;
19664;SDS011;9980;51.020;7.772;2023-11-19T12:40:20;12.03;;;3.60;;
19664;SDS011;9980;51.020;7.772;2023-11-19T12:42:53;15.90;;;3.90;;
19664;SDS011;9980;51.020;7.772;2023-11-19T12:45:22;11.93;;;3.40;;
19664;SDS011;9980;51.020;7.772;2023-11-19T12:48:08;11.10;;;3.33;;
19664;SDS011;9980;51.020;7.772;2023-11-19T12:50:54;16.53;;;3.20;;
19664;SDS011;9980;51.020;7.772;2023-11-19T12:53:24;11.77;;;3.17;;
19664;SDS011;9980;51.020;7.772;2023-11-19T12:55:53;8.50;;;3.00;;
19664;SDS011;9980;51.020;7.772;2023-11-19T12:58:28;17.03;;;3.77;;
19664;SDS011;9980;51.020;7.772;2023-11-19T13:01:01;7.90;;;3.20;;
19664;SDS011;9980;51.020;7.772;2023-11-19T13:03:38;12.40;;;3.13;;
19664;SDS011;9980;51.020;7.772;2023-11-19T13:06:09;10.30;;;2.90;;
19664;SDS011;9980;51.020;7.772;2023-11-19T13:08:39;8.10;;;3.30;;
19664;SDS011;9980;51.020;7.772;2023-11-19T13:11:11;8.67;;;2.97;;
19664;SDS011;9980;51.020;7.772;2023-11-19T13:13:58;8.73;;;2.57;;
19664;SDS011;9980;51.020;7.772;2023-11-19T13:16:38;7.57;;;2.40;;
19664;SDS011;9980;51.020;7.772;2023-11-19T13:19:06;11.57;;;3.00;;
19664;SDS011;9980;51.020;7.772;2023-11-19T13:21:33;10.50;;;2.83;;
19664;SDS011;9980;51.020;7.772;2023-11-19T13:24:00;7.23;;;2.70;;
19664;SDS011;9980;51.020;7.772;2023-11-19T13:26:27;12.83;;;3.50;;
19664;SDS011;9980;51.020;7.772;2023-11-19T13:28:54;10.73;;;3.73;;
19664;SDS011;9980;51.020;7.772;2023-11-19T13:31:21;11.10;;;3.37;;
19664;SDS011;9980;51.020;7.772;2023-11-19T13:33:49;8.10;;;2.50;;
19664;SDS011;9980;51.020;7.772;2023-11-19T13:36:16;8.63;;;3.20;;
19664;SDS011;9980;51.020;7.772;2023-11-19T13:38:43;7.03;;;2.93;;
19664;SDS011;9980;51.020;7.772;2023-11-19T13:41:11;10.53;;;2.93;;
19664;SDS011;9980;51.020;7.772;2023-11-19T13:43:39;13.27;;;2.90;;
19664;SDS011;9980;51.020;7.772;2023-11-19T13:46:06;6.43;;;2.40;;
19664;SDS011;9980;51.020;7.772;2023-11-19T13:48:36;9.30;;;2.93;;
19664;SDS011;9980;51.020;7.772;2023-11-19T13:51:04;8.97;;;2.73;;
19664;SDS011;9980;51.020;7.772;2023-11-19T13:53:32;8.63;;;2.60;;
19664;SDS011;9980;51.020;7.772;2023-11-19T13:56:17;7.47;;;2.67;;
19664;SDS011;9980;51.020;7.772;2023-11-19T13:58:44;14.10;;;3.27;;
19664;SDS011;9980;51.020;7.772;2023-11-19T14:01:11;5.83;;;2.27;;
19664;SDS011;9980;51.020;7.772;2023-11-19T14:03:40;15.03;;;3.00;;
19664;SDS011;9980;51.020;7.772;2023-11-19T14:06:08;14.00;;;2.93;;
19664;SDS011;9980;51.020;7.772;2023-11-19T14:08:36;10.57;;;3.17;;
19664;SDS011;9980;51.020;7.772;2023-11-19T14:11:03;6.40;;;2.30;;
19664;SDS011;9980;51.020;7.772;2023-11-19T14:13:31;10.60;;;2.83;;
19664;SDS011;9980;51.020;7.772;2023-11-19T14:15:59;9.13;;;2.97;;
19664;SDS011;9980;51.020;7.772;2023-11-19T14:18:27;9.10;;;3.23;;
19664;SDS011;9980;51.020;7.772;2023-11-19T14:20:54;9.23;;;3.00;;
19664;SDS011;9980;51.020;7.772;2023-11-19T14:23:21;8.40;;;3.07;;
19664;SDS011;9980;51.020;7.772;2023-11-19T14:25:48;9.97;;;3.03;;
19664;SDS011;9980;51.020;7.772;2023-11-19T14:28:16;11.33;;;3.00;;
19664;SDS011;9980;51.020;7.772;2023-11-19T14:30:43;7.47;;;2.43;;
19664;SDS011;9980;51.020;7.772;2023-11-19T14:33:11;14.90;;;2.73;;
19664;SDS011;9980;51.020;7.772;2023-11-19T14:35:38;6.67;;;2.27;;
19664;SDS011;9980;51.020;7.772;2023-11-19T14:38:05;10.53;;;3.30;;
19664;SDS011;9980;51.020;7.772;2023-11-19T14:40:36;9.93;;;3.33;;
19664;SDS011;9980;51.020;7.772;2023-11-19T14:43:06;7.03;;;2.87;;
19664;SDS011;9980;51.020;7.772;2023-11-19T14:45:36;9.70;;;3.30;;
19664;SDS011;9980;51.020;7.772;2023-11-19T14:48:14;9.77;;;2.73;;
19664;SDS011;9980;51.020;7.772;2023-11-19T14:50:42;8.77;;;2.97;;
19664;SDS011;9980;51.020;7.772;2023-11-19T14:53:10;8.97;;;2.83;;
19664;SDS011;9980;51.020;7.772;2023-11-19T14:55:37;10.77;;;3.07;;
19664;SDS011;9980;51.020;7.772;2023-11-19T14:58:04;12.13;;;3.20;;
19664;SDS011;9980;51.020;7.772;2023-11-19T15:00:37;11.87;;;3.00;;
19664;SDS011;9980;51.020;7.772;2023-11-19T15:03:04;9.47;;;2.80;;
19664;SDS011;9980;51.020;7.772;2023-11-19T15:05:33;13.90;;;3.47;;
19664;SDS011;9980;51.020;7.772;2023-11-19T15:08:00;10.50;;;3.20;;
19664;SDS011;9980;51.020;7.772;2023-11-19T15:10:29;13.17;;;4.00;;
19664;SDS011;9980;51.020;7.772;2023-11-19T15:12:56;10.70;;;2.70;;
19664;SDS011;9980;51.020;7.772;2023-11-19T15:15:24;7.17;;;2.97;;
19664;SDS011;9980;51.020;7.772;2023-11-19T15:17:54;9.80;;;3.23;;
19664;SDS011;9980;51.020;7.772;2023-11-19T15:20:21;8.63;;;3.13;;
19664;SDS011;9980;51.020;7.772;2023-11-19T15:22:48;12.43;;;3.00;;
19664;SDS011;9980;51.020;7.772;2023-11-19T15:25:15;9.27;;;2.60;;